sensor_id;sensor_type;location;lat;lon;timestamp;P1;durP1;ratioP1;P2;durP2;ratioP2
50367;SDS011;36281;34.132;-118.018;2023-07-13T00:01:32;5.00;;;2.80;;
50367;SDS011;36281;34.132;-118.018;2023-07-13T00:04:01;3.75;;;2.40;;
50367;SDS011;36281;34.132;-118.018;2023-07-13T00:06:31;3.58;;;2.50;;
50367;SDS011;36281;34.132;-118.018;2023-07-13T00:09:00;2.70;;;2.50;;
50367;SDS011;36281;34.132;-118.018;2023-07-13T00:11:29;3.50;;;2.55;;
50367;SDS011;36281;34.132;-118.018;2023-07-13T00:14:02;4.97;;;2.70;;
50367;SDS011;36281;34.132;-118.018;2023-07-13T00:16:33;3.17;;;2.50;;
50367;SDS011;36281;34.132;-118.018;2023-07-13T00:19:03;3.33;;;2.50;;
50367;SDS011;36281;34.132;-118.018;2023-07-13T00:21:33;4.75;;;2.80;;
50367;SDS011;36281;34.132;-118.018;2023-07-13T00:24:02;2.80;;;2.50;;
50367;SDS011;36281;34.132;-118.018;2023-07-13T00:26:32;2.90;;;2.60;;
50367;SDS011;36281;34.132;-118.018;2023-07-13T00:29:03;3.42;;;2.75;;
50367;SDS011;36281;34.132;-118.018;2023-07-13T00:34:05;3.55;;;2.67;;
50367;SDS011;36281;34.132;-118.018;2023-07-13T00:36:34;2.90;;;2.45;;
50367;SDS011;36281;34.132;-118.018;2023-07-13T00:39:03;3.17;;;2.50;;
50367;SDS011;36281;34.132;-118.018;2023-07-13T00:41:33;2.90;;;2.20;;
50367;SDS011;36281;34.132;-118.018;2023-07-13T00:44:05;3.30;;;2.60;;
50367;SDS011;36281;34.132;-118.018;2023-07-13T00:46:38;3.97;;;2.70;;
50367;SDS011;36281;34.132;-118.018;2023-07-13T00:49:07;3.97;;;2.70;;
50367;SDS011;36281;34.132;-118.018;2023-07-13T00:51:51;3.38;;;2.60;;
50367;SDS011;36281;34.132;-118.018;2023-07-13T00:54:24;3.63;;;2.50;;
50367;SDS011;36281;34.132;-118.018;2023-07-13T00:56:57;4.35;;;2.90;;
50367;SDS011;36281;34.132;-118.018;2023-07-13T00:59:41;2.75;;;2.53;;
50367;SDS011;36281;34.132;-118.018;2023-07-13T01:02:13;3.53;;;2.90;;
50367;SDS011;36281;34.132;-118.018;2023-07-13T01:04:43;4.05;;;2.50;;
50367;SDS011;36281;34.132;-118.018;2023-07-13T01:07:12;3.10;;;2.80;;
50367;SDS011;36281;34.132;-118.018;2023-07-13T01:09:42;2.80;;;2.50;;
50367;SDS011;36281;34.132;-118.018;2023-07-13T01:12:15;2.95;;;2.63;;
50367;SDS011;36281;34.132;-118.018;2023-07-13T01:14:48;2.50;;;2.22;;
50367;SDS011;36281;34.132;-118.018;2023-07-13T01:17:24;3.20;;;2.40;;
50367;SDS011;36281;34.132;-118.018;2023-07-13T01:19:53;7.40;;;3.03;;
50367;SDS011;36281;34.132;-118.018;2023-07-13T01:22:24;4.22;;;2.70;;
50367;SDS011;36281;34.132;-118.018;2023-07-13T01:24:56;2.72;;;2.53;;
50367;SDS011;36281;34.132;-118.018;2023-07-13T01:27:25;3.28;;;2.60;;
50367;SDS011;36281;34.132;-118.018;2023-07-13T01:29:55;2.67;;;2.47;;
50367;SDS011;36281;34.132;-118.018;2023-07-13T01:35:00;3.53;;;2.60;;
50367;SDS011;36281;34.132;-118.018;2023-07-13T01:37:31;5.03;;;2.70;;
50367;SDS011;36281;34.132;-118.018;2023-07-13T01:40:04;2.70;;;2.50;;
50367;SDS011;36281;34.132;-118.018;2023-07-13T01:42:33;10.40;;;3.53;;
50367;SDS011;36281;34.132;-118.018;2023-07-13T01:45:05;3.88;;;2.50;;
50367;SDS011;36281;34.132;-118.018;2023-07-13T01:47:35;2.65;;;2.38;;
50367;SDS011;36281;34.132;-118.018;2023-07-13T01:50:04;2.53;;;2.33;;
50367;SDS011;36281;34.132;-118.018;2023-07-13T01:52:35;4.20;;;2.78;;
50367;SDS011;36281;34.132;-118.018;2023-07-13T01:55:05;3.00;;;2.60;;
50367;SDS011;36281;34.132;-118.018;2023-07-13T01:57:35;2.83;;;2.60;;
50367;SDS011;36281;34.132;-118.018;2023-07-13T02:00:04;2.60;;;2.40;;
50367;SDS011;36281;34.132;-118.018;2023-07-13T02:02:36;2.83;;;2.47;;
50367;SDS011;36281;34.132;-118.018;2023-07-13T02:05:06;2.67;;;2.47;;
50367;SDS011;36281;34.132;-118.018;2023-07-13T02:07:38;2.58;;;2.30;;
50367;SDS011;36281;34.132;-118.018;2023-07-13T02:10:07;2.97;;;2.60;;
50367;SDS011;36281;34.132;-118.018;2023-07-13T02:12:37;3.30;;;2.65;;
50367;SDS011;36281;34.132;-118.018;2023-07-13T02:15:07;2.65;;;2.45;;
50367;SDS011;36281;34.132;-118.018;2023-07-13T02:17:36;3.03;;;2.40;;
50367;SDS011;36281;34.132;-118.018;2023-07-13T02:20:06;3.92;;;2.45;;
50367;SDS011;36281;34.132;-118.018;2023-07-13T02:22:38;4.38;;;2.50;;
50367;SDS011;36281;34.132;-118.018;2023-07-13T02:25:08;2.83;;;2.53;;
50367;SDS011;36281;34.132;-118.018;2023-07-13T02:27:37;4.22;;;2.40;;
50367;SDS011;36281;34.132;-118.018;2023-07-13T02:30:06;3.85;;;2.70;;
50367;SDS011;36281;34.132;-118.018;2023-07-13T02:32:36;4.05;;;2.50;;
50367;SDS011;36281;34.132;-118.018;2023-07-13T02:35:05;3.33;;;2.40;;
50367;SDS011;36281;34.132;-118.018;2023-07-13T02:37:35;3.20;;;2.38;;
50367;SDS011;36281;34.132;-118.018;2023-07-13T02:40:12;3.65;;;2.60;;
50367;SDS011;36281;34.132;-118.018;2023-07-13T02:42:42;2.70;;;2.50;;
50367;SDS011;36281;34.132;-118.018;2023-07-13T02:45:14;3.72;;;2.20;;
50367;SDS011;36281;34.132;-118.018;2023-07-13T02:47:43;2.78;;;2.42;;
50367;SDS011;36281;34.132;-118.018;2023-07-13T02:50:12;3.75;;;2.45;;
50367;SDS011;36281;34.132;-118.018;2023-07-13T02:52:41;3.85;;;2.70;;
50367;SDS011;36281;34.132;-118.018;2023-07-13T02:55:12;2.83;;;2.42;;
50367;SDS011;36281;34.132;-118.018;2023-07-13T02:57:41;2.70;;;2.38;;
50367;SDS011;36281;34.132;-118.018;2023-07-13T03:00:10;3.22;;;2.60;;
50367;SDS011;36281;34.132;-118.018;2023-07-13T03:02:40;2.40;;;2.20;;
50367;SDS011;36281;34.132;-118.018;2023-07-13T03:05:09;2.63;;;2.40;;
50367;SDS011;36281;34.132;-118.018;2023-07-13T03:07:41;3.60;;;2.80;;
50367;SDS011;36281;34.132;-118.018;2023-07-13T03:10:13;2.90;;;2.60;;
50367;SDS011;36281;34.132;-118.018;2023-07-13T03:12:45;3.05;;;2.55;;
50367;SDS011;36281;34.132;-118.018;2023-07-13T03:15:14;3.17;;;2.78;;
50367;SDS011;36281;34.132;-118.018;2023-07-13T03:17:43;4.00;;;2.80;;
50367;SDS011;36281;34.132;-118.018;2023-07-13T03:20:12;4.05;;;2.58;;
50367;SDS011;36281;34.132;-118.018;2023-07-13T03:22:41;2.60;;;2.40;;
50367;SDS011;36281;34.132;-118.018;2023-07-13T03:25:15;2.90;;;2.42;;
50367;SDS011;36281;34.132;-118.018;2023-07-13T03:27:47;2.47;;;2.28;;
50367;SDS011;36281;34.132;-118.018;2023-07-13T03:30:16;3.03;;;2.47;;
50367;SDS011;36281;34.132;-118.018;2023-07-13T03:32:45;3.63;;;2.40;;
50367;SDS011;36281;34.132;-118.018;2023-07-13T03:35:14;3.63;;;2.60;;
50367;SDS011;36281;34.132;-118.018;2023-07-13T03:37:46;3.50;;;2.60;;
50367;SDS011;36281;34.132;-118.018;2023-07-13T03:40:20;3.78;;;2.75;;
50367;SDS011;36281;34.132;-118.018;2023-07-13T03:42:49;2.78;;;2.55;;
50367;SDS011;36281;34.132;-118.018;2023-07-13T03:45:18;2.55;;;2.30;;
50367;SDS011;36281;34.132;-118.018;2023-07-13T03:47:47;2.83;;;2.33;;
50367;SDS011;36281;34.132;-118.018;2023-07-13T03:50:19;3.05;;;2.65;;
50367;SDS011;36281;34.132;-118.018;2023-07-13T03:52:48;3.63;;;2.50;;
50367;SDS011;36281;34.132;-118.018;2023-07-13T03:55:20;3.08;;;2.45;;
50367;SDS011;36281;34.132;-118.018;2023-07-13T03:57:52;2.97;;;2.33;;
50367;SDS011;36281;34.132;-118.018;2023-07-13T04:00:28;2.40;;;2.20;;
50367;SDS011;36281;34.132;-118.018;2023-07-13T04:02:57;3.05;;;2.50;;
50367;SDS011;36281;34.132;-118.018;2023-07-13T04:05:26;2.97;;;2.53;;
50367;SDS011;36281;34.132;-118.018;2023-07-13T04:07:55;3.25;;;2.38;;
50367;SDS011;36281;34.132;-118.018;2023-07-13T04:10:26;2.80;;;2.30;;
50367;SDS011;36281;34.132;-118.018;2023-07-13T04:12:55;2.70;;;2.50;;
50367;SDS011;36281;34.132;-118.018;2023-07-13T04:15:28;3.03;;;2.60;;
50367;SDS011;36281;34.132;-118.018;2023-07-13T04:17:58;3.28;;;2.45;;
50367;SDS011;36281;34.132;-118.018;2023-07-13T04:20:27;2.85;;;2.45;;
50367;SDS011;36281;34.132;-118.018;2023-07-13T04:22:56;4.38;;;2.53;;
50367;SDS011;36281;34.132;-118.018;2023-07-13T04:25:27;3.05;;;2.58;;
50367;SDS011;36281;34.132;-118.018;2023-07-13T04:27:58;3.05;;;2.20;;
50367;SDS011;36281;34.132;-118.018;2023-07-13T04:30:28;2.75;;;2.50;;
50367;SDS011;36281;34.132;-118.018;2023-07-13T04:32:57;2.58;;;2.22;;
50367;SDS011;36281;34.132;-118.018;2023-07-13T04:35:26;2.35;;;2.15;;
50367;SDS011;36281;34.132;-118.018;2023-07-13T04:37:57;2.60;;;2.40;;
50367;SDS011;36281;34.132;-118.018;2023-07-13T04:40:28;3.38;;;2.47;;
50367;SDS011;36281;34.132;-118.018;2023-07-13T04:42:57;2.60;;;2.40;;
50367;SDS011;36281;34.132;-118.018;2023-07-13T04:45:26;2.80;;;2.47;;
50367;SDS011;36281;34.132;-118.018;2023-07-13T04:47:55;3.75;;;2.70;;
50367;SDS011;36281;34.132;-118.018;2023-07-13T04:50:27;2.80;;;2.45;;
50367;SDS011;36281;34.132;-118.018;2023-07-13T04:52:56;3.22;;;2.40;;
50367;SDS011;36281;34.132;-118.018;2023-07-13T04:55:28;2.50;;;2.30;;
50367;SDS011;36281;34.132;-118.018;2023-07-13T04:57:58;3.60;;;2.67;;
50367;SDS011;36281;34.132;-118.018;2023-07-13T05:00:30;2.83;;;2.40;;
50367;SDS011;36281;34.132;-118.018;2023-07-13T05:02:59;2.70;;;2.22;;
50367;SDS011;36281;34.132;-118.018;2023-07-13T05:05:31;3.17;;;2.50;;
50367;SDS011;36281;34.132;-118.018;2023-07-13T05:08:01;4.68;;;2.40;;
50367;SDS011;36281;34.132;-118.018;2023-07-13T05:10:32;4.25;;;2.60;;
50367;SDS011;36281;34.132;-118.018;2023-07-13T05:13:04;2.50;;;2.30;;
50367;SDS011;36281;34.132;-118.018;2023-07-13T05:15:33;3.78;;;2.60;;
50367;SDS011;36281;34.132;-118.018;2023-07-13T05:18:02;6.88;;;3.67;;
50367;SDS011;36281;34.132;-118.018;2023-07-13T05:20:31;4.55;;;3.10;;
50367;SDS011;36281;34.132;-118.018;2023-07-13T05:23:00;4.47;;;3.38;;
50367;SDS011;36281;34.132;-118.018;2023-07-13T05:25:29;3.10;;;2.80;;
50367;SDS011;36281;34.132;-118.018;2023-07-13T05:28:01;3.08;;;2.75;;
50367;SDS011;36281;34.132;-118.018;2023-07-13T05:30:30;3.67;;;3.15;;
50367;SDS011;36281;34.132;-118.018;2023-07-13T05:33:01;4.45;;;3.22;;
50367;SDS011;36281;34.132;-118.018;2023-07-13T05:35:30;4.70;;;3.60;;
50367;SDS011;36281;34.132;-118.018;2023-07-13T05:37:59;6.55;;;3.45;;
50367;SDS011;36281;34.132;-118.018;2023-07-13T05:40:28;4.03;;;3.28;;
50367;SDS011;36281;34.132;-118.018;2023-07-13T05:42:57;5.05;;;3.50;;
50367;SDS011;36281;34.132;-118.018;2023-07-13T05:45:28;4.60;;;3.65;;
50367;SDS011;36281;34.132;-118.018;2023-07-13T05:47:57;5.63;;;4.28;;
50367;SDS011;36281;34.132;-118.018;2023-07-13T05:50:26;6.03;;;3.63;;
50367;SDS011;36281;34.132;-118.018;2023-07-13T05:52:55;6.13;;;4.15;;
50367;SDS011;36281;34.132;-118.018;2023-07-13T05:55:24;6.07;;;4.03;;
50367;SDS011;36281;34.132;-118.018;2023-07-13T05:57:56;5.38;;;4.10;;
50367;SDS011;36281;34.132;-118.018;2023-07-13T06:00:25;4.70;;;3.40;;
50367;SDS011;36281;34.132;-118.018;2023-07-13T06:02:56;4.75;;;3.50;;
50367;SDS011;36281;34.132;-118.018;2023-07-13T06:05:26;6.13;;;3.60;;
50367;SDS011;36281;34.132;-118.018;2023-07-13T06:07:56;5.55;;;3.75;;
50367;SDS011;36281;34.132;-118.018;2023-07-13T06:10:25;4.93;;;3.33;;
50367;SDS011;36281;34.132;-118.018;2023-07-13T06:12:54;4.85;;;3.63;;
50367;SDS011;36281;34.132;-118.018;2023-07-13T06:15:23;5.03;;;3.75;;
50367;SDS011;36281;34.132;-118.018;2023-07-13T06:17:54;4.15;;;3.55;;
50367;SDS011;36281;34.132;-118.018;2023-07-13T06:20:25;4.82;;;4.05;;
50367;SDS011;36281;34.132;-118.018;2023-07-13T06:22:57;5.72;;;3.38;;
50367;SDS011;36281;34.132;-118.018;2023-07-13T06:25:26;5.75;;;3.63;;
50367;SDS011;36281;34.132;-118.018;2023-07-13T06:27:55;4.72;;;3.60;;
50367;SDS011;36281;34.132;-118.018;2023-07-13T06:30:28;4.30;;;3.72;;
50367;SDS011;36281;34.132;-118.018;2023-07-13T06:33:01;5.50;;;3.85;;
50367;SDS011;36281;34.132;-118.018;2023-07-13T06:35:30;5.75;;;4.03;;
50367;SDS011;36281;34.132;-118.018;2023-07-13T06:37:59;4.68;;;3.65;;
50367;SDS011;36281;34.132;-118.018;2023-07-13T06:40:30;5.47;;;3.60;;
50367;SDS011;36281;34.132;-118.018;2023-07-13T06:42:59;5.47;;;3.60;;
50367;SDS011;36281;34.132;-118.018;2023-07-13T06:45:28;5.68;;;3.72;;
50367;SDS011;36281;34.132;-118.018;2023-07-13T06:47:57;4.93;;;3.72;;
50367;SDS011;36281;34.132;-118.018;2023-07-13T06:50:30;5.85;;;3.92;;
50367;SDS011;36281;34.132;-118.018;2023-07-13T06:52:59;4.93;;;3.83;;
50367;SDS011;36281;34.132;-118.018;2023-07-13T06:55:30;3.95;;;3.53;;
50367;SDS011;36281;34.132;-118.018;2023-07-13T06:57:59;4.78;;;3.55;;
50367;SDS011;36281;34.132;-118.018;2023-07-13T07:00:28;5.20;;;3.88;;
50367;SDS011;36281;34.132;-118.018;2023-07-13T07:02:58;6.22;;;4.10;;
50367;SDS011;36281;34.132;-118.018;2023-07-13T07:05:27;5.50;;;4.15;;
50367;SDS011;36281;34.132;-118.018;2023-07-13T07:07:58;6.03;;;4.32;;
50367;SDS011;36281;34.132;-118.018;2023-07-13T07:10:28;6.65;;;4.43;;
50367;SDS011;36281;34.132;-118.018;2023-07-13T07:12:59;6.95;;;4.70;;
50367;SDS011;36281;34.132;-118.018;2023-07-13T07:15:28;5.38;;;4.63;;
50367;SDS011;36281;34.132;-118.018;2023-07-13T07:18:00;5.68;;;4.88;;
50367;SDS011;36281;34.132;-118.018;2023-07-13T07:20:31;6.32;;;4.72;;
50367;SDS011;36281;34.132;-118.018;2023-07-13T07:23:02;7.60;;;4.95;;
50367;SDS011;36281;34.132;-118.018;2023-07-13T07:25:31;6.63;;;5.13;;
50367;SDS011;36281;34.132;-118.018;2023-07-13T07:28:03;7.47;;;5.32;;
50367;SDS011;36281;34.132;-118.018;2023-07-13T07:30:34;6.43;;;4.93;;
50367;SDS011;36281;34.132;-118.018;2023-07-13T07:33:06;6.68;;;5.45;;
50367;SDS011;36281;34.132;-118.018;2023-07-13T07:35:35;8.57;;;5.07;;
50367;SDS011;36281;34.132;-118.018;2023-07-13T07:38:26;7.15;;;5.57;;
50367;SDS011;36281;34.132;-118.018;2023-07-13T07:40:55;6.03;;;5.13;;
50367;SDS011;36281;34.132;-118.018;2023-07-13T07:43:27;6.43;;;4.93;;
50367;SDS011;36281;34.132;-118.018;2023-07-13T07:45:59;7.50;;;4.95;;
50367;SDS011;36281;34.132;-118.018;2023-07-13T07:48:29;8.48;;;4.55;;
50367;SDS011;36281;34.132;-118.018;2023-07-13T07:50:59;7.05;;;4.65;;
50367;SDS011;36281;34.132;-118.018;2023-07-13T07:53:29;6.95;;;4.63;;
50367;SDS011;36281;34.132;-118.018;2023-07-13T07:56:00;6.50;;;4.70;;
50367;SDS011;36281;34.132;-118.018;2023-07-13T07:58:51;6.50;;;4.40;;
50367;SDS011;36281;34.132;-118.018;2023-07-13T08:01:23;8.02;;;4.50;;
50367;SDS011;36281;34.132;-118.018;2023-07-13T08:03:55;5.28;;;4.60;;
50367;SDS011;36281;34.132;-118.018;2023-07-13T08:06:27;5.55;;;4.10;;
50367;SDS011;36281;34.132;-118.018;2023-07-13T08:09:13;6.57;;;4.68;;
50367;SDS011;36281;34.132;-118.018;2023-07-13T08:11:42;6.18;;;4.20;;
50367;SDS011;36281;34.132;-118.018;2023-07-13T08:14:13;5.88;;;4.40;;
50367;SDS011;36281;34.132;-118.018;2023-07-13T08:16:44;5.85;;;4.75;;
50367;SDS011;36281;34.132;-118.018;2023-07-13T08:19:13;7.65;;;4.35;;
50367;SDS011;36281;34.132;-118.018;2023-07-13T08:21:41;5.85;;;4.50;;
50367;SDS011;36281;34.132;-118.018;2023-07-13T08:24:12;6.53;;;4.30;;
50367;SDS011;36281;34.132;-118.018;2023-07-13T08:26:41;5.57;;;4.07;;
50367;SDS011;36281;34.132;-118.018;2023-07-13T08:29:10;6.78;;;4.63;;
50367;SDS011;36281;34.132;-118.018;2023-07-13T08:31:39;5.68;;;4.45;;
50367;SDS011;36281;34.132;-118.018;2023-07-13T08:34:08;6.57;;;4.20;;
50367;SDS011;36281;34.132;-118.018;2023-07-13T08:36:37;5.15;;;4.10;;
50367;SDS011;36281;34.132;-118.018;2023-07-13T08:39:06;10.07;;;5.03;;
50367;SDS011;36281;34.132;-118.018;2023-07-13T08:41:38;6.22;;;4.45;;
50367;SDS011;36281;34.132;-118.018;2023-07-13T08:44:07;6.30;;;4.55;;
50367;SDS011;36281;34.132;-118.018;2023-07-13T08:46:55;7.57;;;4.57;;
50367;SDS011;36281;34.132;-118.018;2023-07-13T08:49:26;5.70;;;4.47;;
50367;SDS011;36281;34.132;-118.018;2023-07-13T08:51:57;5.85;;;4.50;;
50367;SDS011;36281;34.132;-118.018;2023-07-13T08:54:32;7.07;;;4.80;;
50367;SDS011;36281;34.132;-118.018;2023-07-13T08:57:09;5.15;;;4.10;;
50367;SDS011;36281;34.132;-118.018;2023-07-13T08:59:41;6.30;;;4.40;;
50367;SDS011;36281;34.132;-118.018;2023-07-13T09:02:18;6.50;;;4.28;;
50367;SDS011;36281;34.132;-118.018;2023-07-13T09:04:54;6.53;;;4.40;;
50367;SDS011;36281;34.132;-118.018;2023-07-13T09:07:33;5.85;;;4.60;;
50367;SDS011;36281;34.132;-118.018;2023-07-13T09:10:13;8.60;;;5.03;;
50367;SDS011;36281;34.132;-118.018;2023-07-13T09:12:53;6.68;;;4.32;;
50367;SDS011;36281;34.132;-118.018;2023-07-13T09:15:34;7.60;;;4.20;;
50367;SDS011;36281;34.132;-118.018;2023-07-13T09:18:08;6.78;;;4.40;;
50367;SDS011;36281;34.132;-118.018;2023-07-13T09:20:42;5.88;;;4.57;;
50367;SDS011;36281;34.132;-118.018;2023-07-13T09:23:17;5.67;;;4.10;;
50367;SDS011;36281;34.132;-118.018;2023-07-13T09:25:49;8.18;;;4.53;;
50367;SDS011;36281;34.132;-118.018;2023-07-13T09:28:27;4.87;;;4.37;;
50367;SDS011;36281;34.132;-118.018;2023-07-13T09:31:03;6.20;;;4.30;;
50367;SDS011;36281;34.132;-118.018;2023-07-13T09:33:36;5.60;;;4.13;;
50367;SDS011;36281;34.132;-118.018;2023-07-13T09:36:11;6.25;;;4.40;;
50367;SDS011;36281;34.132;-118.018;2023-07-13T09:38:49;6.47;;;4.43;;
50367;SDS011;36281;34.132;-118.018;2023-07-13T09:41:26;6.72;;;4.43;;
50367;SDS011;36281;34.132;-118.018;2023-07-13T09:44:08;6.73;;;4.70;;
50367;SDS011;36281;34.132;-118.018;2023-07-13T09:46:39;5.30;;;4.20;;
50367;SDS011;36281;34.132;-118.018;2023-07-13T09:49:13;5.97;;;4.32;;
50367;SDS011;36281;34.132;-118.018;2023-07-13T09:51:42;7.53;;;4.70;;
50367;SDS011;36281;34.132;-118.018;2023-07-13T09:54:18;8.98;;;4.60;;
50367;SDS011;36281;34.132;-118.018;2023-07-13T09:56:48;9.18;;;4.68;;
50367;SDS011;36281;34.132;-118.018;2023-07-13T09:59:27;6.68;;;4.50;;
50367;SDS011;36281;34.132;-118.018;2023-07-13T10:02:01;7.18;;;4.60;;
50367;SDS011;36281;34.132;-118.018;2023-07-13T10:04:32;5.85;;;4.22;;
50367;SDS011;36281;34.132;-118.018;2023-07-13T10:07:05;9.73;;;5.00;;
50367;SDS011;36281;34.132;-118.018;2023-07-13T10:09:54;9.02;;;5.45;;
50367;SDS011;36281;34.132;-118.018;2023-07-13T10:12:26;6.97;;;4.60;;
50367;SDS011;36281;34.132;-118.018;2023-07-13T10:14:59;7.80;;;4.50;;
50367;SDS011;36281;34.132;-118.018;2023-07-13T10:17:49;6.35;;;4.18;;
50367;SDS011;36281;34.132;-118.018;2023-07-13T10:20:20;6.28;;;4.40;;
50367;SDS011;36281;34.132;-118.018;2023-07-13T10:22:50;5.18;;;4.68;;
50367;SDS011;36281;34.132;-118.018;2023-07-13T10:25:23;5.47;;;4.28;;
50367;SDS011;36281;34.132;-118.018;2023-07-13T10:27:55;4.75;;;4.30;;
50367;SDS011;36281;34.132;-118.018;2023-07-13T10:30:34;5.22;;;3.95;;
50367;SDS011;36281;34.132;-118.018;2023-07-13T10:33:09;5.35;;;4.05;;
50367;SDS011;36281;34.132;-118.018;2023-07-13T10:35:41;7.43;;;4.25;;
50367;SDS011;36281;34.132;-118.018;2023-07-13T10:38:14;7.85;;;4.75;;
50367;SDS011;36281;34.132;-118.018;2023-07-13T10:40:50;6.38;;;4.50;;
50367;SDS011;36281;34.132;-118.018;2023-07-13T10:43:37;6.32;;;4.40;;
50367;SDS011;36281;34.132;-118.018;2023-07-13T10:46:13;8.05;;;4.38;;
50367;SDS011;36281;34.132;-118.018;2023-07-13T10:48:45;8.48;;;4.72;;
50367;SDS011;36281;34.132;-118.018;2023-07-13T10:51:20;7.38;;;4.78;;
50367;SDS011;36281;34.132;-118.018;2023-07-13T10:56:48;5.60;;;3.90;;
50367;SDS011;36281;34.132;-118.018;2023-07-13T10:59:24;5.60;;;4.18;;
50367;SDS011;36281;34.132;-118.018;2023-07-13T11:01:58;7.30;;;4.20;;
50367;SDS011;36281;34.132;-118.018;2023-07-13T11:04:41;6.25;;;4.55;;
50367;SDS011;36281;34.132;-118.018;2023-07-13T11:07:18;5.88;;;4.28;;
50367;SDS011;36281;34.132;-118.018;2023-07-13T11:09:49;6.15;;;4.47;;
50367;SDS011;36281;34.132;-118.018;2023-07-13T11:12:28;7.18;;;4.68;;
50367;SDS011;36281;34.132;-118.018;2023-07-13T11:15:28;6.00;;;4.20;;
50367;SDS011;36281;34.132;-118.018;2023-07-13T11:18:04;7.38;;;4.70;;
50367;SDS011;36281;34.132;-118.018;2023-07-13T11:20:41;9.88;;;5.00;;
50367;SDS011;36281;34.132;-118.018;2023-07-13T11:23:20;7.15;;;4.68;;
50367;SDS011;36281;34.132;-118.018;2023-07-13T11:25:58;7.05;;;4.55;;
50367;SDS011;36281;34.132;-118.018;2023-07-13T11:28:30;7.70;;;4.85;;
50367;SDS011;36281;34.132;-118.018;2023-07-13T11:31:01;8.73;;;4.70;;
50367;SDS011;36281;34.132;-118.018;2023-07-13T11:33:52;7.22;;;4.55;;
50367;SDS011;36281;34.132;-118.018;2023-07-13T11:36:27;8.10;;;4.40;;
50367;SDS011;36281;34.132;-118.018;2023-07-13T11:39:05;5.05;;;4.13;;
50367;SDS011;36281;34.132;-118.018;2023-07-13T11:41:49;7.47;;;4.93;;
50367;SDS011;36281;34.132;-118.018;2023-07-13T11:44:20;6.30;;;4.63;;
50367;SDS011;36281;34.132;-118.018;2023-07-13T11:46:52;7.68;;;4.75;;
50367;SDS011;36281;34.132;-118.018;2023-07-13T11:49:24;6.68;;;4.57;;
50367;SDS011;36281;34.132;-118.018;2023-07-13T11:51:59;7.70;;;4.82;;
50367;SDS011;36281;34.132;-118.018;2023-07-13T11:54:30;11.20;;;5.60;;
50367;SDS011;36281;34.132;-118.018;2023-07-13T11:57:02;8.20;;;5.00;;
50367;SDS011;36281;34.132;-118.018;2023-07-13T11:59:51;9.85;;;5.07;;
50367;SDS011;36281;34.132;-118.018;2023-07-13T12:02:26;8.95;;;5.07;;
50367;SDS011;36281;34.132;-118.018;2023-07-13T12:05:00;8.75;;;4.38;;
50367;SDS011;36281;34.132;-118.018;2023-07-13T12:07:31;9.48;;;4.43;;
50367;SDS011;36281;34.132;-118.018;2023-07-13T12:10:01;6.90;;;4.55;;
50367;SDS011;36281;34.132;-118.018;2023-07-13T12:12:31;6.47;;;4.28;;
50367;SDS011;36281;34.132;-118.018;2023-07-13T12:15:00;6.47;;;4.28;;
50367;SDS011;36281;34.132;-118.018;2023-07-13T12:17:33;7.15;;;4.70;;
50367;SDS011;36281;34.132;-118.018;2023-07-13T12:20:10;8.40;;;4.80;;
50367;SDS011;36281;34.132;-118.018;2023-07-13T12:22:47;9.88;;;4.72;;
50367;SDS011;36281;34.132;-118.018;2023-07-13T12:25:18;7.97;;;4.90;;
50367;SDS011;36281;34.132;-118.018;2023-07-13T12:27:48;7.28;;;4.20;;
50367;SDS011;36281;34.132;-118.018;2023-07-13T12:30:25;6.72;;;4.43;;
50367;SDS011;36281;34.132;-118.018;2023-07-13T12:32:59;5.72;;;4.70;;
50367;SDS011;36281;34.132;-118.018;2023-07-13T12:35:41;7.38;;;4.78;;
50367;SDS011;36281;34.132;-118.018;2023-07-13T12:38:14;8.70;;;4.72;;
50367;SDS011;36281;34.132;-118.018;2023-07-13T12:40:44;8.63;;;4.40;;
50367;SDS011;36281;34.132;-118.018;2023-07-13T12:43:21;6.47;;;4.72;;
50367;SDS011;36281;34.132;-118.018;2023-07-13T12:45:54;5.50;;;4.28;;
50367;SDS011;36281;34.132;-118.018;2023-07-13T12:48:25;7.82;;;4.50;;
50367;SDS011;36281;34.132;-118.018;2023-07-13T12:51:13;6.63;;;4.70;;
50367;SDS011;36281;34.132;-118.018;2023-07-13T12:53:45;6.90;;;4.60;;
50367;SDS011;36281;34.132;-118.018;2023-07-13T12:56:18;9.30;;;4.80;;
50367;SDS011;36281;34.132;-118.018;2023-07-13T12:58:54;9.35;;;6.07;;
50367;SDS011;36281;34.132;-118.018;2023-07-13T13:01:26;8.25;;;5.55;;
50367;SDS011;36281;34.132;-118.018;2023-07-13T13:03:57;8.88;;;5.50;;
50367;SDS011;36281;34.132;-118.018;2023-07-13T13:06:36;8.60;;;5.53;;
50367;SDS011;36281;34.132;-118.018;2023-07-13T13:09:05;7.72;;;5.03;;
50367;SDS011;36281;34.132;-118.018;2023-07-13T13:14:09;7.65;;;4.90;;
50367;SDS011;36281;34.132;-118.018;2023-07-13T13:16:46;7.80;;;5.20;;
50367;SDS011;36281;34.132;-118.018;2023-07-13T13:19:19;9.38;;;5.13;;
50367;SDS011;36281;34.132;-118.018;2023-07-13T13:21:53;9.73;;;4.90;;
50367;SDS011;36281;34.132;-118.018;2023-07-13T13:24:24;6.63;;;5.13;;
50367;SDS011;36281;34.132;-118.018;2023-07-13T13:26:59;10.20;;;5.13;;
50367;SDS011;36281;34.132;-118.018;2023-07-13T13:29:34;7.43;;;4.80;;
50367;SDS011;36281;34.132;-118.018;2023-07-13T13:32:09;9.20;;;5.18;;
50367;SDS011;36281;34.132;-118.018;2023-07-13T13:34:40;9.60;;;4.93;;
50367;SDS011;36281;34.132;-118.018;2023-07-13T13:37:19;7.70;;;4.70;;
50367;SDS011;36281;34.132;-118.018;2023-07-13T13:39:49;9.50;;;5.07;;
50367;SDS011;36281;34.132;-118.018;2023-07-13T13:42:35;7.53;;;4.88;;
50367;SDS011;36281;34.132;-118.018;2023-07-13T13:45:04;7.22;;;5.07;;
50367;SDS011;36281;34.132;-118.018;2023-07-13T13:47:35;7.35;;;4.78;;
50367;SDS011;36281;34.132;-118.018;2023-07-13T13:50:10;7.32;;;4.90;;
50367;SDS011;36281;34.132;-118.018;2023-07-13T13:52:43;7.70;;;5.10;;
50367;SDS011;36281;34.132;-118.018;2023-07-13T13:55:13;7.80;;;4.80;;
50367;SDS011;36281;34.132;-118.018;2023-07-13T13:57:43;5.70;;;4.53;;
50367;SDS011;36281;34.132;-118.018;2023-07-13T14:00:13;5.38;;;4.75;;
50367;SDS011;36281;34.132;-118.018;2023-07-13T14:02:45;8.27;;;4.85;;
50367;SDS011;36281;34.132;-118.018;2023-07-13T14:05:17;7.75;;;5.25;;
50367;SDS011;36281;34.132;-118.018;2023-07-13T14:07:51;9.40;;;5.05;;
50367;SDS011;36281;34.132;-118.018;2023-07-13T14:10:20;6.72;;;4.82;;
50367;SDS011;36281;34.132;-118.018;2023-07-13T14:12:51;7.38;;;5.00;;
50367;SDS011;36281;34.132;-118.018;2023-07-13T14:15:23;8.10;;;5.53;;
50367;SDS011;36281;34.132;-118.018;2023-07-13T14:17:54;7.85;;;5.47;;
50367;SDS011;36281;34.132;-118.018;2023-07-13T14:20:25;9.70;;;5.30;;
50367;SDS011;36281;34.132;-118.018;2023-07-13T14:23:05;10.45;;;4.95;;
50367;SDS011;36281;34.132;-118.018;2023-07-13T14:25:34;6.70;;;5.07;;
50367;SDS011;36281;34.132;-118.018;2023-07-13T14:28:10;7.35;;;5.22;;
50367;SDS011;36281;34.132;-118.018;2023-07-13T14:30:52;8.90;;;5.70;;
50367;SDS011;36281;34.132;-118.018;2023-07-13T14:33:23;7.40;;;5.25;;
50367;SDS011;36281;34.132;-118.018;2023-07-13T14:35:52;7.47;;;5.40;;
50367;SDS011;36281;34.132;-118.018;2023-07-13T14:38:23;8.20;;;5.50;;
50367;SDS011;36281;34.132;-118.018;2023-07-13T14:40:55;8.43;;;5.20;;
50367;SDS011;36281;34.132;-118.018;2023-07-13T14:43:24;7.15;;;4.78;;
50367;SDS011;36281;34.132;-118.018;2023-07-13T14:45:56;6.40;;;4.80;;
50367;SDS011;36281;34.132;-118.018;2023-07-13T14:48:25;8.38;;;5.20;;